sensor_id;sensor_type;location;lat;lon;timestamp;temperature;humidity
1686;DHT22;840;47.980;7.830;2024-03-22T00:02:00;13.30;99.90
1686;DHT22;840;47.980;7.830;2024-03-22T00:04:28;13.20;99.90
1686;DHT22;840;47.980;7.830;2024-03-22T00:06:54;13.20;99.90
1686;DHT22;840;47.980;7.830;2024-03-22T00:09:21;13.20;99.90
1686;DHT22;840;47.980;7.830;2024-03-22T00:11:47;13.20;99.90
1686;DHT22;840;47.980;7.830;2024-03-22T00:14:13;13.20;99.90
1686;DHT22;840;47.980;7.830;2024-03-22T00:16:39;13.10;99.90
1686;DHT22;840;47.980;7.830;2024-03-22T00:19:06;13.10;99.90
1686;DHT22;840;47.980;7.830;2024-03-22T00:21:33;13.20;99.90
1686;DHT22;840;47.980;7.830;2024-03-22T00:24:00;13.20;99.90
1686;DHT22;840;47.980;7.830;2024-03-22T00:26:27;13.30;99.90
1686;DHT22;840;47.980;7.830;2024-03-22T00:28:54;13.30;99.90
1686;DHT22;840;47.980;7.830;2024-03-22T00:31:19;13.30;99.90
1686;DHT22;840;47.980;7.830;2024-03-22T00:33:46;13.30;99.90
1686;DHT22;840;47.980;7.830;2024-03-22T00:36:12;13.30;99.90
1686;DHT22;840;47.980;7.830;2024-03-22T00:38:40;13.30;99.90
1686;DHT22;840;47.980;7.830;2024-03-22T00:41:05;13.20;99.90
1686;DHT22;840;47.980;7.830;2024-03-22T00:43:32;13.20;99.90
1686;DHT22;840;47.980;7.830;2024-03-22T00:45:58;13.20;99.90
1686;DHT22;840;47.980;7.830;2024-03-22T00:48:26;13.10;99.90
1686;DHT22;840;47.980;7.830;2024-03-22T00:50:51;13.10;99.90
1686;DHT22;840;47.980;7.830;2024-03-22T00:53:18;13.10;99.90
1686;DHT22;840;47.980;7.830;2024-03-22T00:55:45;13.00;99.90
1686;DHT22;840;47.980;7.830;2024-03-22T00:58:17;13.00;99.90
1686;DHT22;840;47.980;7.830;2024-03-22T01:00:43;13.00;99.90
1686;DHT22;840;47.980;7.830;2024-03-22T01:03:10;13.00;99.90
1686;DHT22;840;47.980;7.830;2024-03-22T01:05:36;12.90;99.90
1686;DHT22;840;47.980;7.830;2024-03-22T01:08:03;12.90;99.90
1686;DHT22;840;47.980;7.830;2024-03-22T01:10:29;12.90;99.90
1686;DHT22;840;47.980;7.830;2024-03-22T01:12:57;13.00;99.90
1686;DHT22;840;47.980;7.830;2024-03-22T01:15:22;13.00;99.90
1686;DHT22;840;47.980;7.830;2024-03-22T01:17:49;13.00;99.90
1686;DHT22;840;47.980;7.830;2024-03-22T01:20:15;13.10;99.90
1686;DHT22;840;47.980;7.830;2024-03-22T01:22:41;13.10;99.90
1686;DHT22;840;47.980;7.830;2024-03-22T01:25:07;13.10;99.90
1686;DHT22;840;47.980;7.830;2024-03-22T01:27:35;13.20;99.90
1686;DHT22;840;47.980;7.830;2024-03-22T01:30:03;13.20;99.90
1686;DHT22;840;47.980;7.830;2024-03-22T01:32:30;13.20;99.90
1686;DHT22;840;47.980;7.830;2024-03-22T01:34:57;13.30;99.90
1686;DHT22;840;47.980;7.830;2024-03-22T01:37:23;13.30;99.90
1686;DHT22;840;47.980;7.830;2024-03-22T01:39:49;13.30;99.90
1686;DHT22;840;47.980;7.830;2024-03-22T01:42:16;13.30;99.90
1686;DHT22;840;47.980;7.830;2024-03-22T01:44:42;13.20;99.90
1686;DHT22;840;47.980;7.830;2024-03-22T01:47:10;13.20;99.90
1686;DHT22;840;47.980;7.830;2024-03-22T01:49:36;13.10;99.90
1686;DHT22;840;47.980;7.830;2024-03-22T01:52:03;13.10;99.90
1686;DHT22;840;47.980;7.830;2024-03-22T01:54:29;13.10;99.90
1686;DHT22;840;47.980;7.830;2024-03-22T01:56:56;13.10;99.90
1686;DHT22;840;47.980;7.830;2024-03-22T01:59:22;13.00;99.90
1686;DHT22;840;47.980;7.830;2024-03-22T02:01:50;13.00;99.90
1686;DHT22;840;47.980;7.830;2024-03-22T02:04:17;13.00;99.90
1686;DHT22;840;47.980;7.830;2024-03-22T02:06:44;13.00;99.90
1686;DHT22;840;47.980;7.830;2024-03-22T02:09:09;12.90;99.90
1686;DHT22;840;47.980;7.830;2024-03-22T02:11:36;12.90;99.90
1686;DHT22;840;47.980;7.830;2024-03-22T02:14:03;12.90;99.90
1686;DHT22;840;47.980;7.830;2024-03-22T02:16:30;12.90;99.90
1686;DHT22;840;47.980;7.830;2024-03-22T02:18:56;12.90;99.90
1686;DHT22;840;47.980;7.830;2024-03-22T02:21:24;12.90;99.90
1686;DHT22;840;47.980;7.830;2024-03-22T02:23:51;12.90;99.90
1686;DHT22;840;47.980;7.830;2024-03-22T02:26:17;12.90;99.90
1686;DHT22;840;47.980;7.830;2024-03-22T02:28:43;12.90;99.90
1686;DHT22;840;47.980;7.830;2024-03-22T02:31:10;12.90;99.90
1686;DHT22;840;47.980;7.830;2024-03-22T02:33:35;12.80;99.90
1686;DHT22;840;47.980;7.830;2024-03-22T02:36:02;12.80;99.90
1686;DHT22;840;47.980;7.830;2024-03-22T02:38:28;12.90;99.90
1686;DHT22;840;47.980;7.830;2024-03-22T02:40:58;12.80;99.90
1686;DHT22;840;47.980;7.830;2024-03-22T02:43:24;12.90;99.90
1686;DHT22;840;47.980;7.830;2024-03-22T02:45:50;12.90;99.90
1686;DHT22;840;47.980;7.830;2024-03-22T02:48:16;12.90;99.90
1686;DHT22;840;47.980;7.830;2024-03-22T02:50:43;12.90;99.90
1686;DHT22;840;47.980;7.830;2024-03-22T02:53:09;12.90;99.90
1686;DHT22;840;47.980;7.830;2024-03-22T02:55:37;12.90;99.90
1686;DHT22;840;47.980;7.830;2024-03-22T02:58:05;12.90;99.90
1686;DHT22;840;47.980;7.830;2024-03-22T03:00:32;12.90;99.90
1686;DHT22;840;47.980;7.830;2024-03-22T03:03:00;13.00;99.90
1686;DHT22;840;47.980;7.830;2024-03-22T03:05:27;13.00;99.90
1686;DHT22;840;47.980;7.830;2024-03-22T03:07:53;12.90;99.90
1686;DHT22;840;47.980;7.830;2024-03-22T03:10:20;12.90;99.90
1686;DHT22;840;47.980;7.830;2024-03-22T03:12:46;12.90;99.90
1686;DHT22;840;47.980;7.830;2024-03-22T03:15:16;12.90;99.90
1686;DHT22;840;47.980;7.830;2024-03-22T03:17:42;12.90;99.90
1686;DHT22;840;47.980;7.830;2024-03-22T03:20:10;13.00;99.90
1686;DHT22;840;47.980;7.830;2024-03-22T03:22:38;13.00;99.90
1686;DHT22;840;47.980;7.830;2024-03-22T03:25:06;13.00;99.90
1686;DHT22;840;47.980;7.830;2024-03-22T03:27:32;13.00;99.90
1686;DHT22;840;47.980;7.830;2024-03-22T03:29:59;13.00;99.90
1686;DHT22;840;47.980;7.830;2024-03-22T03:32:26;13.00;99.90
1686;DHT22;840;47.980;7.830;2024-03-22T03:34:53;12.90;99.90
1686;DHT22;840;47.980;7.830;2024-03-22T03:37:18;12.80;99.90
1686;DHT22;840;47.980;7.830;2024-03-22T03:39:45;12.70;99.90
1686;DHT22;840;47.980;7.830;2024-03-22T03:42:11;12.70;99.90
1686;DHT22;840;47.980;7.830;2024-03-22T03:44:37;12.60;99.90
1686;DHT22;840;47.980;7.830;2024-03-22T03:47:03;12.60;99.90
1686;DHT22;840;47.980;7.830;2024-03-22T03:49:31;12.60;99.90
1686;DHT22;840;47.980;7.830;2024-03-22T03:51:57;12.50;99.90
1686;DHT22;840;47.980;7.830;2024-03-22T03:54:24;12.50;99.90
1686;DHT22;840;47.980;7.830;2024-03-22T03:56:49;12.50;99.90
1686;DHT22;840;47.980;7.830;2024-03-22T03:59:16;12.50;99.90
1686;DHT22;840;47.980;7.830;2024-03-22T04:01:43;12.40;99.90
1686;DHT22;840;47.980;7.830;2024-03-22T04:04:09;12.40;99.90
1686;DHT22;840;47.980;7.830;2024-03-22T04:06:36;12.40;99.90
1686;DHT22;840;47.980;7.830;2024-03-22T04:09:03;12.40;99.90
1686;DHT22;840;47.980;7.830;2024-03-22T04:11:29;12.40;99.90
1686;DHT22;840;47.980;7.830;2024-03-22T04:13:56;12.50;99.90
1686;DHT22;840;47.980;7.830;2024-03-22T04:16:21;12.50;99.90
1686;DHT22;840;47.980;7.830;2024-03-22T04:18:48;12.50;99.90
1686;DHT22;840;47.980;7.830;2024-03-22T04:21:14;12.60;99.90
1686;DHT22;840;47.980;7.830;2024-03-22T04:23:42;12.60;99.90
1686;DHT22;840;47.980;7.830;2024-03-22T04:26:08;12.60;99.90
1686;DHT22;840;47.980;7.830;2024-03-22T04:28:35;12.60;99.90
1686;DHT22;840;47.980;7.830;2024-03-22T04:31:01;12.70;99.90
1686;DHT22;840;47.980;7.830;2024-03-22T04:33:33;12.70;99.90
1686;DHT22;840;47.980;7.830;2024-03-22T04:35:59;12.70;99.90
1686;DHT22;840;47.980;7.830;2024-03-22T04:38:27;12.80;99.90
1686;DHT22;840;47.980;7.830;2024-03-22T04:40:56;12.80;99.90
1686;DHT22;840;47.980;7.830;2024-03-22T04:43:23;12.80;99.90
1686;DHT22;840;47.980;7.830;2024-03-22T04:45:50;12.80;99.90
1686;DHT22;840;47.980;7.830;2024-03-22T04:48:18;12.90;99.90
1686;DHT22;840;47.980;7.830;2024-03-22T04:50:45;12.90;99.90
1686;DHT22;840;47.980;7.830;2024-03-22T04:53:13;12.90;99.90
1686;DHT22;840;47.980;7.830;2024-03-22T04:55:39;12.80;99.90
1686;DHT22;840;47.980;7.830;2024-03-22T04:58:12;12.80;99.90
1686;DHT22;840;47.980;7.830;2024-03-22T05:00:39;12.80;99.90
1686;DHT22;840;47.980;7.830;2024-03-22T05:03:05;12.80;99.90
1686;DHT22;840;47.980;7.830;2024-03-22T05:05:31;12.70;99.90
1686;DHT22;840;47.980;7.830;2024-03-22T05:07:57;12.70;99.90
1686;DHT22;840;47.980;7.830;2024-03-22T05:10:24;12.70;99.90
1686;DHT22;840;47.980;7.830;2024-03-22T05:12:53;12.70;99.90
1686;DHT22;840;47.980;7.830;2024-03-22T05:15:21;12.70;99.90
1686;DHT22;840;47.980;7.830;2024-03-22T05:17:47;12.70;99.90
1686;DHT22;840;47.980;7.830;2024-03-22T05:20:13;12.70;99.90
1686;DHT22;840;47.980;7.830;2024-03-22T05:22:39;12.60;99.90
1686;DHT22;840;47.980;7.830;2024-03-22T05:25:07;12.60;99.90
1686;DHT22;840;47.980;7.830;2024-03-22T05:27:34;12.60;99.90
1686;DHT22;840;47.980;7.830;2024-03-22T05:30:00;12.60;99.90
1686;DHT22;840;47.980;7.830;2024-03-22T05:32:27;12.60;99.90
1686;DHT22;840;47.980;7.830;2024-03-22T05:34:54;12.60;99.90
1686;DHT22;840;47.980;7.830;2024-03-22T05:37:20;12.50;99.90
1686;DHT22;840;47.980;7.830;2024-03-22T05:39:47;12.50;99.90
1686;DHT22;840;47.980;7.830;2024-03-22T05:42:13;12.50;99.90
1686;DHT22;840;47.980;7.830;2024-03-22T05:44:40;12.50;99.90
1686;DHT22;840;47.980;7.830;2024-03-22T05:47:05;12.50;99.90
1686;DHT22;840;47.980;7.830;2024-03-22T05:49:33;12.50;99.90
1686;DHT22;840;47.980;7.830;2024-03-22T05:51:59;12.40;99.90
1686;DHT22;840;47.980;7.830;2024-03-22T05:54:26;12.50;99.90
1686;DHT22;840;47.980;7.830;2024-03-22T05:56:52;12.50;99.90
1686;DHT22;840;47.980;7.830;2024-03-22T05:59:18;12.50;99.90
1686;DHT22;840;47.980;7.830;2024-03-22T06:01:44;12.50;99.90
1686;DHT22;840;47.980;7.830;2024-03-22T06:04:11;12.50;99.90
1686;DHT22;840;47.980;7.830;2024-03-22T06:06:38;12.50;99.90
1686;DHT22;840;47.980;7.830;2024-03-22T06:09:04;12.50;99.90
1686;DHT22;840;47.980;7.830;2024-03-22T06:11:34;12.50;99.90
1686;DHT22;840;47.980;7.830;2024-03-22T06:14:01;12.40;99.90
1686;DHT22;840;47.980;7.830;2024-03-22T06:16:27;12.40;99.90
1686;DHT22;840;47.980;7.830;2024-03-22T06:18:53;12.40;99.90
1686;DHT22;840;47.980;7.830;2024-03-22T06:21:19;12.40;99.90
1686;DHT22;840;47.980;7.830;2024-03-22T06:23:49;12.40;99.90
1686;DHT22;840;47.980;7.830;2024-03-22T06:26:14;12.40;99.90
1686;DHT22;840;47.980;7.830;2024-03-22T06:28:41;12.40;99.90
1686;DHT22;840;47.980;7.830;2024-03-22T06:31:07;12.40;99.90
1686;DHT22;840;47.980;7.830;2024-03-22T06:33:34;12.40;99.90
1686;DHT22;840;47.980;7.830;2024-03-22T06:36:00;12.30;99.90
1686;DHT22;840;47.980;7.830;2024-03-22T06:38:28;12.30;99.90
1686;DHT22;840;47.980;7.830;2024-03-22T06:40:55;12.30;99.90
1686;DHT22;840;47.980;7.830;2024-03-22T06:43:23;12.30;99.90
1686;DHT22;840;47.980;7.830;2024-03-22T06:45:48;12.30;99.90
1686;DHT22;840;47.980;7.830;2024-03-22T06:48:15;12.30;99.90
1686;DHT22;840;47.980;7.830;2024-03-22T06:50:41;12.30;99.90
1686;DHT22;840;47.980;7.830;2024-03-22T06:53:08;12.30;99.90
1686;DHT22;840;47.980;7.830;2024-03-22T06:55:35;12.40;99.90
1686;DHT22;840;47.980;7.830;2024-03-22T06:58:03;12.40;99.90
1686;DHT22;840;47.980;7.830;2024-03-22T07:00:29;12.50;99.90
1686;DHT22;840;47.980;7.830;2024-03-22T07:02:56;12.50;99.90
1686;DHT22;840;47.980;7.830;2024-03-22T07:05:22;12.60;99.90
1686;DHT22;840;47.980;7.830;2024-03-22T07:07:48;12.60;99.90
1686;DHT22;840;47.980;7.830;2024-03-22T07:10:15;12.60;99.90
1686;DHT22;840;47.980;7.830;2024-03-22T07:12:42;12.60;99.90
1686;DHT22;840;47.980;7.830;2024-03-22T07:15:09;12.70;99.90
1686;DHT22;840;47.980;7.830;2024-03-22T07:17:38;12.70;99.90
1686;DHT22;840;47.980;7.830;2024-03-22T07:20:05;12.80;99.90
1686;DHT22;840;47.980;7.830;2024-03-22T07:22:32;12.90;99.90
1686;DHT22;840;47.980;7.830;2024-03-22T07:24:58;13.00;99.90
1686;DHT22;840;47.980;7.830;2024-03-22T07:27:25;13.00;99.90
1686;DHT22;840;47.980;7.830;2024-03-22T07:29:54;13.10;99.90
1686;DHT22;840;47.980;7.830;2024-03-22T07:32:22;13.10;99.90
1686;DHT22;840;47.980;7.830;2024-03-22T07:34:48;13.20;99.90
1686;DHT22;840;47.980;7.830;2024-03-22T07:37:15;13.20;99.90
1686;DHT22;840;47.980;7.830;2024-03-22T07:39:41;13.20;99.90
1686;DHT22;840;47.980;7.830;2024-03-22T07:42:07;13.30;99.90
1686;DHT22;840;47.980;7.830;2024-03-22T07:44:33;13.40;99.90
1686;DHT22;840;47.980;7.830;2024-03-22T07:47:00;13.40;99.90
1686;DHT22;840;47.980;7.830;2024-03-22T07:49:27;13.50;99.90
1686;DHT22;840;47.980;7.830;2024-03-22T07:51:54;13.50;99.90
1686;DHT22;840;47.980;7.830;2024-03-22T07:54:19;13.60;99.90
1686;DHT22;840;47.980;7.830;2024-03-22T07:56:46;13.70;99.90
1686;DHT22;840;47.980;7.830;2024-03-22T07:59:12;13.70;99.90
1686;DHT22;840;47.980;7.830;2024-03-22T08:01:39;13.70;99.90
1686;DHT22;840;47.980;7.830;2024-03-22T08:04:04;13.80;99.90
1686;DHT22;840;47.980;7.830;2024-03-22T08:06:32;13.80;99.90
1686;DHT22;840;47.980;7.830;2024-03-22T08:08:58;13.90;99.90
1686;DHT22;840;47.980;7.830;2024-03-22T08:11:26;14.00;99.90
1686;DHT22;840;47.980;7.830;2024-03-22T08:13:52;14.10;99.90
1686;DHT22;840;47.980;7.830;2024-03-22T08:16:27;14.10;99.90
1686;DHT22;840;47.980;7.830;2024-03-22T08:18:52;14.20;99.90
1686;DHT22;840;47.980;7.830;2024-03-22T08:21:19;14.30;99.90
1686;DHT22;840;47.980;7.830;2024-03-22T08:23:46;14.40;99.90
1686;DHT22;840;47.980;7.830;2024-03-22T08:26:13;14.50;99.90
1686;DHT22;840;47.980;7.830;2024-03-22T08:28:38;14.50;99.90
1686;DHT22;840;47.980;7.830;2024-03-22T08:31:05;14.60;99.90
1686;DHT22;840;47.980;7.830;2024-03-22T08:33:31;14.60;99.90
1686;DHT22;840;47.980;7.830;2024-03-22T08:35:58;14.70;99.90
1686;DHT22;840;47.980;7.830;2024-03-22T08:38:23;14.70;99.90
1686;DHT22;840;47.980;7.830;2024-03-22T08:40:52;14.70;99.90
1686;DHT22;840;47.980;7.830;2024-03-22T08:43:18;14.80;99.90
1686;DHT22;840;47.980;7.830;2024-03-22T08:45:47;14.90;99.90
1686;DHT22;840;47.980;7.830;2024-03-22T08:48:13;15.00;99.90
1686;DHT22;840;47.980;7.830;2024-03-22T08:50:42;15.00;99.90
1686;DHT22;840;47.980;7.830;2024-03-22T08:53:07;15.10;99.90
1686;DHT22;840;47.980;7.830;2024-03-22T08:55:34;15.10;99.90
1686;DHT22;840;47.980;7.830;2024-03-22T08:58:01;15.20;99.90
1686;DHT22;840;47.980;7.830;2024-03-22T09:00:29;15.20;99.90
1686;DHT22;840;47.980;7.830;2024-03-22T09:02:55;15.30;99.90
1686;DHT22;840;47.980;7.830;2024-03-22T09:05:22;15.30;99.90
1686;DHT22;840;47.980;7.830;2024-03-22T09:07:48;15.40;99.90
1686;DHT22;840;47.980;7.830;2024-03-22T09:10:15;15.40;99.90
1686;DHT22;840;47.980;7.830;2024-03-22T09:12:41;15.50;99.90
1686;DHT22;840;47.980;7.830;2024-03-22T09:15:10;15.60;99.90
1686;DHT22;840;47.980;7.830;2024-03-22T09:17:35;15.60;99.90
1686;DHT22;840;47.980;7.830;2024-03-22T09:20:02;15.60;99.90
1686;DHT22;840;47.980;7.830;2024-03-22T09:22:29;15.70;99.90
1686;DHT22;840;47.980;7.830;2024-03-22T09:24:58;15.80;99.90
1686;DHT22;840;47.980;7.830;2024-03-22T09:27:23;15.80;99.90
1686;DHT22;840;47.980;7.830;2024-03-22T09:29:50;15.90;99.90
1686;DHT22;840;47.980;7.830;2024-03-22T09:32:17;16.00;99.90
1686;DHT22;840;47.980;7.830;2024-03-22T09:34:44;16.00;99.90
1686;DHT22;840;47.980;7.830;2024-03-22T09:37:09;16.10;99.90
1686;DHT22;840;47.980;7.830;2024-03-22T09:39:36;16.10;99.90
1686;DHT22;840;47.980;7.830;2024-03-22T09:42:04;16.20;99.90
1686;DHT22;840;47.980;7.830;2024-03-22T09:44:32;16.20;99.90
1686;DHT22;840;47.980;7.830;2024-03-22T09:46:59;16.30;99.90
1686;DHT22;840;47.980;7.830;2024-03-22T09:49:27;16.30;99.90
1686;DHT22;840;47.980;7.830;2024-03-22T09:51:54;16.40;99.90
1686;DHT22;840;47.980;7.830;2024-03-22T09:54:24;16.40;99.90
1686;DHT22;840;47.980;7.830;2024-03-22T09:56:50;16.50;99.90
1686;DHT22;840;47.980;7.830;2024-03-22T09:59:17;16.50;99.90
1686;DHT22;840;47.980;7.830;2024-03-22T10:01:44;16.60;99.90
1686;DHT22;840;47.980;7.830;2024-03-22T10:04:12;16.60;99.90
1686;DHT22;840;47.980;7.830;2024-03-22T10:06:39;16.60;99.90
1686;DHT22;840;47.980;7.830;2024-03-22T10:09:06;16.70;99.90
1686;DHT22;840;47.980;7.830;2024-03-22T10:11:34;16.70;99.90
1686;DHT22;840;47.980;7.830;2024-03-22T10:14:01;16.70;99.90
1686;DHT22;840;47.980;7.830;2024-03-22T10:16:33;16.70;99.90
1686;DHT22;840;47.980;7.830;2024-03-22T10:19:00;16.70;99.90
1686;DHT22;840;47.980;7.830;2024-03-22T10:21:26;16.70;99.90
1686;DHT22;840;47.980;7.830;2024-03-22T10:23:56;16.70;99.90
1686;DHT22;840;47.980;7.830;2024-03-22T10:26:21;16.70;99.90
1686;DHT22;840;47.980;7.830;2024-03-22T10:28:48;16.70;99.90
1686;DHT22;840;47.980;7.830;2024-03-22T10:31:14;16.70;99.90
1686;DHT22;840;47.980;7.830;2024-03-22T10:33:41;16.70;99.90
1686;DHT22;840;47.980;7.830;2024-03-22T10:36:10;16.70;99.90
1686;DHT22;840;47.980;7.830;2024-03-22T10:38:38;16.80;99.90
1686;DHT22;840;47.980;7.830;2024-03-22T10:41:06;16.80;99.90
1686;DHT22;840;47.980;7.830;2024-03-22T10:43:33;16.90;99.90
1686;DHT22;840;47.980;7.830;2024-03-22T10:46:01;17.00;99.90
1686;DHT22;840;47.980;7.830;2024-03-22T10:48:30;17.10;99.90
1686;DHT22;840;47.980;7.830;2024-03-22T10:50:59;17.20;99.90
1686;DHT22;840;47.980;7.830;2024-03-22T10:53:26;17.20;99.90
1686;DHT22;840;47.980;7.830;2024-03-22T10:55:54;17.30;99.90
1686;DHT22;840;47.980;7.830;2024-03-22T10:58:26;17.40;99.90
1686;DHT22;840;47.980;7.830;2024-03-22T11:00:53;17.50;99.90
1686;DHT22;840;47.980;7.830;2024-03-22T11:03:20;17.60;99.90
1686;DHT22;840;47.980;7.830;2024-03-22T11:05:46;17.70;99.90
1686;DHT22;840;47.980;7.830;2024-03-22T11:08:12;17.80;99.90
1686;DHT22;840;47.980;7.830;2024-03-22T11:10:39;17.80;99.90
1686;DHT22;840;47.980;7.830;2024-03-22T11:13:08;17.90;99.90
1686;DHT22;840;47.980;7.830;2024-03-22T11:15:35;18.00;99.90
1686;DHT22;840;47.980;7.830;2024-03-22T11:18:02;18.00;99.90
1686;DHT22;840;47.980;7.830;2024-03-22T11:20:28;18.10;99.90
1686;DHT22;840;47.980;7.830;2024-03-22T11:22:55;18.10;99.90
1686;DHT22;840;47.980;7.830;2024-03-22T11:25:21;18.20;99.90
1686;DHT22;840;47.980;7.830;2024-03-22T11:27:48;18.20;99.90
1686;DHT22;840;47.980;7.830;2024-03-22T11:30:15;18.20;99.90
1686;DHT22;840;47.980;7.830;2024-03-22T11:32:43;18.30;99.90
1686;DHT22;840;47.980;7.830;2024-03-22T11:35:10;18.30;99.90
1686;DHT22;840;47.980;7.830;2024-03-22T11:37:38;18.40;99.00
1686;DHT22;840;47.980;7.830;2024-03-22T11:40:05;18.40;98.30
1686;DHT22;840;47.980;7.830;2024-03-22T11:42:34;18.40;98.30
1686;DHT22;840;47.980;7.830;2024-03-22T11:45:01;18.50;96.00
1686;DHT22;840;47.980;7.830;2024-03-22T11:47:28;18.60;94.20
1686;DHT22;840;47.980;7.830;2024-03-22T11:49:56;18.60;92.40
1686;DHT22;840;47.980;7.830;2024-03-22T11:52:24;18.60;92.40
1686;DHT22;840;47.980;7.830;2024-03-22T11:54:50;18.70;92.10
1686;DHT22;840;47.980;7.830;2024-03-22T11:57:18;18.70;90.40
1686;DHT22;840;47.980;7.830;2024-03-22T11:59:44;18.60;90.50
1686;DHT22;840;47.980;7.830;2024-03-22T12:02:11;18.70;91.20
1686;DHT22;840;47.980;7.830;2024-03-22T12:04:40;18.70;89.60
1686;DHT22;840;47.980;7.830;2024-03-22T12:07:10;18.80;88.60
1686;DHT22;840;47.980;7.830;2024-03-22T12:09:37;18.80;85.50
1686;DHT22;840;47.980;7.830;2024-03-22T12:12:05;18.90;88.20
1686;DHT22;840;47.980;7.830;2024-03-22T12:14:31;18.90;89.00
1686;DHT22;840;47.980;7.830;2024-03-22T12:16:58;18.90;89.30
1686;DHT22;840;47.980;7.830;2024-03-22T12:19:24;18.90;82.70
1686;DHT22;840;47.980;7.830;2024-03-22T12:21:51;19.00;80.90
1686;DHT22;840;47.980;7.830;2024-03-22T12:24:18;19.10;74.00
1686;DHT22;840;47.980;7.830;2024-03-22T12:26:45;19.10;69.00
1686;DHT22;840;47.980;7.830;2024-03-22T12:29:12;19.20;67.20
1686;DHT22;840;47.980;7.830;2024-03-22T12:31:38;19.20;61.50
1686;DHT22;840;47.980;7.830;2024-03-22T12:34:04;19.30;60.50
1686;DHT22;840;47.980;7.830;2024-03-22T12:36:31;19.30;63.50
1686;DHT22;840;47.980;7.830;2024-03-22T12:38:57;19.40;64.00
1686;DHT22;840;47.980;7.830;2024-03-22T12:41:26;19.50;61.30
1686;DHT22;840;47.980;7.830;2024-03-22T12:43:52;19.70;63.30
1686;DHT22;840;47.980;7.830;2024-03-22T12:46:19;20.20;64.90
1686;DHT22;840;47.980;7.830;2024-03-22T12:48:45;20.60;63.70
1686;DHT22;840;47.980;7.830;2024-03-22T12:51:11;21.20;62.60
1686;DHT22;840;47.980;7.830;2024-03-22T12:53:37;21.60;58.70
1686;DHT22;840;47.980;7.830;2024-03-22T12:56:04;21.80;58.10
1686;DHT22;840;47.980;7.830;2024-03-22T12:58:31;22.10;59.10
1686;DHT22;840;47.980;7.830;2024-03-22T13:00:58;22.40;57.70
1686;DHT22;840;47.980;7.830;2024-03-22T13:03:25;22.70;57.80
1686;DHT22;840;47.980;7.830;2024-03-22T13:05:52;22.90;59.00
1686;DHT22;840;47.980;7.830;2024-03-22T13:08:18;23.10;60.30
1686;DHT22;840;47.980;7.830;2024-03-22T13:10:45;23.00;56.90
1686;DHT22;840;47.980;7.830;2024-03-22T13:13:11;23.10;59.10
1686;DHT22;840;47.980;7.830;2024-03-22T13:15:42;23.10;59.40
1686;DHT22;840;47.980;7.830;2024-03-22T13:18:07;23.30;58.00
1686;DHT22;840;47.980;7.830;2024-03-22T13:20:35;23.30;52.80
1686;DHT22;840;47.980;7.830;2024-03-22T13:23:01;23.30;57.70
1686;DHT22;840;47.980;7.830;2024-03-22T13:25:28;23.20;54.80
1686;DHT22;840;47.980;7.830;2024-03-22T13:27:53;23.20;51.50
1686;DHT22;840;47.980;7.830;2024-03-22T13:30:20;23.10;51.10
1686;DHT22;840;47.980;7.830;2024-03-22T13:32:48;22.90;52.00
1686;DHT22;840;47.980;7.830;2024-03-22T13:35:14;22.70;48.80
1686;DHT22;840;47.980;7.830;2024-03-22T13:37:40;22.60;49.40
1686;DHT22;840;47.980;7.830;2024-03-22T13:40:08;22.50;51.50
1686;DHT22;840;47.980;7.830;2024-03-22T13:42:34;22.50;55.00
1686;DHT22;840;47.980;7.830;2024-03-22T13:45:01;22.50;55.80
1686;DHT22;840;47.980;7.830;2024-03-22T13:47:27;22.60;55.40
1686;DHT22;840;47.980;7.830;2024-03-22T13:49:55;22.70;54.40
1686;DHT22;840;47.980;7.830;2024-03-22T13:52:20;22.80;57.40
1686;DHT22;840;47.980;7.830;2024-03-22T13:54:48;22.90;58.10
1686;DHT22;840;47.980;7.830;2024-03-22T13:57:15;22.90;55.80
1686;DHT22;840;47.980;7.830;2024-03-22T13:59:42;23.00;54.40
1686;DHT22;840;47.980;7.830;2024-03-22T14:02:07;22.90;52.30
1686;DHT22;840;47.980;7.830;2024-03-22T14:04:34;22.80;52.00
1686;DHT22;840;47.980;7.830;2024-03-22T14:07:02;22.80;50.20
1686;DHT22;840;47.980;7.830;2024-03-22T14:09:30;22.80;51.80
1686;DHT22;840;47.980;7.830;2024-03-22T14:11:56;22.80;55.90
1686;DHT22;840;47.980;7.830;2024-03-22T14:14:22;23.00;54.50
1686;DHT22;840;47.980;7.830;2024-03-22T14:16:49;23.30;53.40
1686;DHT22;840;47.980;7.830;2024-03-22T14:19:16;23.50;52.00
1686;DHT22;840;47.980;7.830;2024-03-22T14:21:43;23.60;51.90
1686;DHT22;840;47.980;7.830;2024-03-22T14:24:12;23.60;49.90
1686;DHT22;840;47.980;7.830;2024-03-22T14:26:38;23.30;48.80
1686;DHT22;840;47.980;7.830;2024-03-22T14:29:07;23.20;49.10
1686;DHT22;840;47.980;7.830;2024-03-22T14:31:34;23.10;49.30
1686;DHT22;840;47.980;7.830;2024-03-22T14:34:00;23.10;51.30
1686;DHT22;840;47.980;7.830;2024-03-22T14:36:27;23.20;49.00
1686;DHT22;840;47.980;7.830;2024-03-22T14:38:52;23.20;49.20
1686;DHT22;840;47.980;7.830;2024-03-22T14:41:20;23.00;49.50
1686;DHT22;840;47.980;7.830;2024-03-22T14:43:46;22.90;49.70
1686;DHT22;840;47.980;7.830;2024-03-22T14:46:13;22.70;51.20
1686;DHT22;840;47.980;7.830;2024-03-22T14:48:39;22.70;52.50
1686;DHT22;840;47.980;7.830;2024-03-22T14:51:05;22.70;50.20
1686;DHT22;840;47.980;7.830;2024-03-22T14:53:32;22.60;50.30
1686;DHT22;840;47.980;7.830;2024-03-22T14:56:00;22.50;52.40
1686;DHT22;840;47.980;7.830;2024-03-22T14:58:31;22.50;52.10
1686;DHT22;840;47.980;7.830;2024-03-22T15:01:00;22.40;50.70
1686;DHT22;840;47.980;7.830;2024-03-22T15:03:26;22.40;50.60
1686;DHT22;840;47.980;7.830;2024-03-22T15:05:54;22.40;53.00
1686;DHT22;840;47.980;7.830;2024-03-22T15:08:20;22.50;56.40
1686;DHT22;840;47.980;7.830;2024-03-22T15:10:47;22.60;53.90
1686;DHT22;840;47.980;7.830;2024-03-22T15:13:14;22.60;54.70
1686;DHT22;840;47.980;7.830;2024-03-22T15:15:43;22.60;54.20
1686;DHT22;840;47.980;7.830;2024-03-22T15:18:09;22.70;53.50
1686;DHT22;840;47.980;7.830;2024-03-22T15:20:36;22.70;53.80
1686;DHT22;840;47.980;7.830;2024-03-22T15:23:03;22.70;51.70
1686;DHT22;840;47.980;7.830;2024-03-22T15:25:30;22.60;52.00
1686;DHT22;840;47.980;7.830;2024-03-22T15:27:56;22.50;52.20
1686;DHT22;840;47.980;7.830;2024-03-22T15:30:23;22.40;48.50
1686;DHT22;840;47.980;7.830;2024-03-22T15:32:50;22.30;50.50
1686;DHT22;840;47.980;7.830;2024-03-22T15:35:21;22.20;53.00
1686;DHT22;840;47.980;7.830;2024-03-22T15:37:46;22.10;51.40
1686;DHT22;840;47.980;7.830;2024-03-22T15:40:14;22.10;52.30
1686;DHT22;840;47.980;7.830;2024-03-22T15:42:40;22.10;53.80
1686;DHT22;840;47.980;7.830;2024-03-22T15:45:07;22.10;54.00
1686;DHT22;840;47.980;7.830;2024-03-22T15:47:32;22.10;54.30
1686;DHT22;840;47.980;7.830;2024-03-22T15:50:00;22.10;54.40
1686;DHT22;840;47.980;7.830;2024-03-22T15:52:27;22.20;55.70
1686;DHT22;840;47.980;7.830;2024-03-22T15:54:54;22.20;55.20
1686;DHT22;840;47.980;7.830;2024-03-22T15:57:20;22.30;55.50
1686;DHT22;840;47.980;7.830;2024-03-22T15:59:47;22.40;57.00
1686;DHT22;840;47.980;7.830;2024-03-22T16:02:13;22.40;56.90
1686;DHT22;840;47.980;7.830;2024-03-22T16:04:39;22.40;54.70
1686;DHT22;840;47.980;7.830;2024-03-22T16:07:06;22.40;55.30
1686;DHT22;840;47.980;7.830;2024-03-22T16:09:35;22.40;55.90
1686;DHT22;840;47.980;7.830;2024-03-22T16:12:01;22.50;53.90
1686;DHT22;840;47.980;7.830;2024-03-22T16:14:29;22.40;55.00